Time;durP1;ratioP1;P1;durP2;ratioP2;P2;SDS_P1;SDS_P2;PMS_P1;PMS_P2;Temp;Humidity;BMP_temperature;BMP_pressure;BME280_temperature;BME280_humidity;BME280_pressure;Samples;Min_cycle;Max_cycle;Signal;HPM_P1;HPM_P2
2023/02/14 00:02:08;;;;;;;41.60;28.13;;;;;;;;;;5051466;28;20210;-75
2023/02/14 00:04:37;;;;;;;41.53;27.73;;;;;;;;;;5050564;28;20226;-76
2023/02/14 00:07:05;;;;;;;42.93;29.30;;;;;;;;;;5051876;28;20275;-76
2023/02/14 00:09:32;;;;;;;42.13;26.77;;;;;;;;;;5051725;28;20214;-77
2023/02/14 00:12:00;;;;;;;43.70;28.87;;;;;;;;;;5050769;28;20241;-75
2023/02/14 00:17:12;;;;;;;41.50;28.30;;;;;;;;;;5051234;28;20335;-76
2023/02/14 00:19:40;;;;;;;40.63;26.40;;;;;;;;;;5051137;28;20192;-75
2023/02/14 00:22:07;;;;;;;44.47;28.93;;;;;;;;;;5051289;28;20298;-76
2023/02/14 00:24:34;;;;;;;43.20;27.60;;;;;;;;;;5050763;28;20236;-76
2023/02/14 00:27:03;;;;;;;40.70;27.47;;;;;;;;;;5051536;28;20763;-76
2023/02/14 00:29:31;;;;;;;40.37;27.70;;;;;;;;;;5050976;28;20292;-76
2023/02/14 00:31:58;;;;;;;40.43;27.10;;;;;;;;;;5050874;28;20331;-76
2023/02/14 00:34:25;;;;;;;42.27;27.30;;;;;;;;;;5050465;28;20226;-76
2023/02/14 00:36:53;;;;;;;40.50;26.60;;;;;;;;;;5051112;28;20230;-76
2023/02/14 00:39:20;;;;;;;41.70;27.43;;;;;;;;;;5051030;28;20733;-76
2023/02/14 00:41:47;;;;;;;38.13;25.90;;;;;;;;;;5033189;28;20613;-76
2023/02/14 00:44:16;;;;;;;39.20;27.00;;;;;;;;;;5031388;28;20225;-75
2023/02/14 00:46:43;;;;;;;41.70;27.03;;;;;;;;;;5031188;28;20235;-76
2023/02/14 00:49:10;;;;;;;37.67;26.00;;;;;;;;;;5030720;28;20643;-76
2023/02/14 00:51:37;;;;;;;39.93;27.00;;;;;;;;;;5034122;28;20787;-76
2023/02/14 00:54:05;;;;;;;38.83;26.43;;;;;;;;;;5035276;28;20765;-75
2023/02/14 00:56:32;;;;;;;40.87;25.80;;;;;;;;;;5035106;28;20313;-76
2023/02/14 00:59:00;;;;;;;41.40;25.00;;;;;;;;;;5034752;28;20233;-76
2023/02/14 01:01:28;;;;;;;41.97;26.40;;;;;;;;;;5035050;28;20290;-76
2023/02/14 01:03:55;;;;;;;40.97;26.23;;;;;;;;;;5033715;28;20305;-75
2023/02/14 01:06:23;;;;;;;37.87;24.97;;;;;;;;;;5035125;28;20236;-76
2023/02/14 01:08:50;;;;;;;39.50;24.73;;;;;;;;;;5035139;28;20678;-76
2023/02/14 01:11:18;;;;;;;42.17;27.27;;;;;;;;;;5037622;28;20253;-76
2023/02/14 01:13:46;;;;;;;43.10;26.97;;;;;;;;;;5054200;28;20232;-76
2023/02/14 01:16:14;;;;;;;42.10;27.40;;;;;;;;;;5055062;28;20718;-75
2023/02/14 01:18:43;;;;;;;45.07;27.67;;;;;;;;;;5053806;28;20229;-75
2023/02/14 01:21:11;;;;;;;41.97;26.80;;;;;;;;;;5054557;28;20663;-76
2023/02/14 01:23:38;;;;;;;44.00;27.07;;;;;;;;;;5054572;28;20281;-75
2023/02/14 01:26:05;;;;;;;43.10;27.37;;;;;;;;;;5054616;28;20289;-75
2023/02/14 01:28:33;;;;;;;44.53;27.10;;;;;;;;;;5054655;28;20232;-75
2023/02/14 01:31:06;;;;;;;43.73;28.07;;;;;;;;;;5054356;28;20286;-75
2023/02/14 01:33:33;;;;;;;42.40;27.43;;;;;;;;;;5054634;28;20315;-75
2023/02/14 01:36:01;;;;;;;43.40;26.97;;;;;;;;;;5054246;28;20231;-76
2023/02/14 01:38:29;;;;;;;42.17;27.17;;;;;;;;;;5054500;28;20204;-75
2023/02/14 01:40:56;;;;;;;42.47;27.93;;;;;;;;;;5054206;28;20410;-76
2023/02/14 01:43:24;;;;;;;41.57;27.03;;;;;;;;;;5053902;28;20235;-76
2023/02/14 01:45:51;;;;;;;42.73;26.93;;;;;;;;;;5053584;28;20194;-75
2023/02/14 01:48:19;;;;;;;44.30;27.50;;;;;;;;;;5054264;28;20197;-76
2023/02/14 01:50:47;;;;;;;51.43;29.53;;;;;;;;;;5053947;28;20288;-75
2023/02/14 01:53:17;;;;;;;47.93;29.27;;;;;;;;;;5053984;28;20312;-75
2023/02/14 01:55:47;;;;;;;56.67;31.63;;;;;;;;;;5054103;28;20283;-76
2023/02/14 01:58:15;;;;;;;52.00;29.80;;;;;;;;;;5053724;28;20295;-74
2023/02/14 02:00:58;;;;;;;48.60;29.43;;;;;;;;;;5052977;28;20286;-76
2023/02/14 02:03:26;;;;;;;50.93;31.00;;;;;;;;;;5053563;28;20205;-75
2023/02/14 02:05:56;;;;;;;54.37;31.10;;;;;;;;;;5053614;28;20863;-74
2023/02/14 02:08:24;;;;;;;54.77;30.57;;;;;;;;;;5053993;28;20364;-74
2023/02/14 02:10:51;;;;;;;57.47;32.40;;;;;;;;;;5053403;28;20733;-75
2023/02/14 02:13:20;;;;;;;48.20;30.00;;;;;;;;;;5053130;28;20775;-76
2023/02/14 02:15:51;;;;;;;55.17;31.00;;;;;;;;;;5052822;28;20742;-76
2023/02/14 02:18:24;;;;;;;47.60;29.50;;;;;;;;;;5053725;28;20284;-75
2023/02/14 02:21:03;;;;;;;46.87;28.53;;;;;;;;;;5053440;28;20291;-76
2023/02/14 02:23:50;;;;;;;48.90;30.53;;;;;;;;;;5053631;28;20277;-75
2023/02/14 02:26:36;;;;;;;45.83;28.53;;;;;;;;;;5053554;28;20229;-75
2023/02/14 02:29:18;;;;;;;49.73;28.00;;;;;;;;;;5053269;28;20791;-75
2023/02/14 02:32:02;;;;;;;48.60;29.43;;;;;;;;;;5049888;28;20636;-75
2023/02/14 02:34:44;;;;;;;49.07;28.93;;;;;;;;;;5053049;28;20245;-75
2023/02/14 02:37:20;;;;;;;43.33;28.27;;;;;;;;;;4970135;28;20346;-75
2023/02/14 02:39:59;;;;;;;45.47;29.50;;;;;;;;;;4971832;28;20211;-75
2023/02/14 02:42:32;;;;;;;45.40;29.13;;;;;;;;;;4971814;28;20849;-76
2023/02/14 02:45:04;;;;;;;43.10;27.47;;;;;;;;;;4971994;28;20203;-75
2023/02/14 02:47:33;;;;;;;44.03;27.33;;;;;;;;;;4971978;28;20623;-75
2023/02/14 02:58:30;;;;;;;43.33;25.70;;;;;;;;;;4971600;28;20475;-75
2023/02/14 03:00:59;;;;;;;40.77;26.30;;;;;;;;;;4971419;28;20195;-76
2023/02/14 03:06:13;;;;;;;39.80;26.10;;;;;;;;;;4971401;28;20260;-76
2023/02/14 03:08:42;;;;;;;48.63;26.77;;;;;;;;;;4971002;28;20234;-75
2023/02/14 03:11:10;;;;;;;44.63;26.13;;;;;;;;;;4970474;28;20249;-75
2023/02/14 03:13:46;;;;;;;42.83;26.57;;;;;;;;;;4981388;28;20322;-76
2023/02/14 03:16:25;;;;;;;44.33;27.23;;;;;;;;;;5051971;28;20286;-75
2023/02/14 03:21:55;;;;;;;41.50;26.50;;;;;;;;;;5051829;28;20281;-75
2023/02/14 03:24:27;;;;;;;41.17;25.60;;;;;;;;;;5052358;28;20276;-74
2023/02/14 03:26:59;;;;;;;41.97;25.93;;;;;;;;;;5051393;28;20782;-75
2023/02/14 03:29:29;;;;;;;41.67;26.47;;;;;;;;;;5051458;28;20318;-75
2023/02/14 03:32:00;;;;;;;42.43;26.30;;;;;;;;;;5051949;28;20687;-75
2023/02/14 03:34:31;;;;;;;42.00;26.57;;;;;;;;;;5051670;28;20329;-73
2023/02/14 03:36:59;;;;;;;42.87;26.87;;;;;;;;;;5051470;28;20723;-74
2023/02/14 03:39:30;;;;;;;44.53;26.67;;;;;;;;;;5051560;28;20290;-74
2023/02/14 03:42:02;;;;;;;42.53;25.67;;;;;;;;;;5051688;28;20298;-74
2023/02/14 03:44:31;;;;;;;42.17;26.30;;;;;;;;;;5051600;28;20226;-74
2023/02/14 03:47:00;;;;;;;41.23;26.73;;;;;;;;;;5051774;28;20303;-74
2023/02/14 03:49:30;;;;;;;41.60;25.60;;;;;;;;;;5051259;28;20234;-74
2023/02/14 03:51:58;;;;;;;42.83;27.00;;;;;;;;;;5051012;28;20671;-74
2023/02/14 03:54:26;;;;;;;42.57;26.13;;;;;;;;;;5051035;28;20344;-76
2023/02/14 03:56:58;;;;;;;42.67;26.17;;;;;;;;;;5050966;28;20227;-74
2023/02/14 03:59:26;;;;;;;45.57;27.57;;;;;;;;;;5051316;28;20767;-75
2023/02/14 04:01:55;;;;;;;46.77;27.33;;;;;;;;;;5050814;28;20908;-74
2023/02/14 04:04:24;;;;;;;41.30;26.23;;;;;;;;;;5051511;28;20295;-74
2023/02/14 04:06:51;;;;;;;42.47;27.03;;;;;;;;;;5051102;28;20195;-74
2023/02/14 04:09:18;;;;;;;43.80;26.63;;;;;;;;;;5050819;28;20663;-74
2023/02/14 04:11:45;;;;;;;44.77;27.17;;;;;;;;;;5050742;28;20287;-75
2023/02/14 04:14:14;;;;;;;49.57;29.33;;;;;;;;;;5050653;28;20271;-74
2023/02/14 04:19:22;;;;;;;43.27;28.00;;;;;;;;;;5050245;28;20240;-75
2023/02/14 04:21:49;;;;;;;42.50;27.17;;;;;;;;;;5051437;28;20227;-74
2023/02/14 04:24:17;;;;;;;44.67;27.27;;;;;;;;;;5051859;28;20290;-75
2023/02/14 04:26:52;;;;;;;41.70;26.40;;;;;;;;;;5050843;28;20292;-73
2023/02/14 04:29:21;;;;;;;44.63;27.07;;;;;;;;;;5051290;28;20195;-75
2023/02/14 04:31:48;;;;;;;42.63;26.67;;;;;;;;;;5050852;28;20290;-74
2023/02/14 04:34:16;;;;;;;41.67;26.83;;;;;;;;;;5051354;28;20255;-75
2023/02/14 04:36:43;;;;;;;44.37;25.87;;;;;;;;;;5050797;28;20298;-76
2023/02/14 04:39:10;;;;;;;42.93;26.53;;;;;;;;;;5050984;28;20301;-75
2023/02/14 04:41:37;;;;;;;43.93;27.13;;;;;;;;;;5050775;28;20298;-73
2023/02/14 04:44:04;;;;;;;44.20;26.80;;;;;;;;;;5066709;28;20686;-75
2023/02/14 04:46:33;;;;;;;39.90;26.23;;;;;;;;;;5070701;28;20282;-74
2023/02/14 04:49:00;;;;;;;42.80;27.27;;;;;;;;;;5071464;28;20238;-76
2023/02/14 04:51:27;;;;;;;46.53;27.20;;;;;;;;;;5070353;28;20282;-75
2023/02/14 04:53:54;;;;;;;44.03;27.27;;;;;;;;;;5071014;28;20263;-76
2023/02/14 04:56:21;;;;;;;48.27;28.23;;;;;;;;;;5070730;28;20735;-76
2023/02/14 04:58:49;;;;;;;42.53;27.23;;;;;;;;;;5071005;28;20199;-75
2023/02/14 05:01:16;;;;;;;46.03;27.97;;;;;;;;;;5070731;28;20226;-76
2023/02/14 05:03:44;;;;;;;50.37;29.50;;;;;;;;;;5071039;28;20224;-75
2023/02/14 05:06:12;;;;;;;48.30;29.67;;;;;;;;;;5070787;28;20191;-75
2023/02/14 05:08:39;;;;;;;47.90;28.13;;;;;;;;;;5070060;28;20291;-76
2023/02/14 05:11:06;;;;;;;47.10;29.20;;;;;;;;;;5069382;28;20317;-75
2023/02/14 05:13:33;;;;;;;49.20;29.43;;;;;;;;;;5050694;28;20331;-76
2023/02/14 05:16:00;;;;;;;47.23;28.03;;;;;;;;;;5050798;28;20236;-75
2023/02/14 05:18:27;;;;;;;48.40;29.60;;;;;;;;;;5050484;28;20192;-76
2023/02/14 05:20:56;;;;;;;49.70;29.73;;;;;;;;;;5050669;28;20269;-74
2023/02/14 05:23:23;;;;;;;48.03;29.47;;;;;;;;;;5049871;28;20287;-75
2023/02/14 05:25:51;;;;;;;47.00;29.47;;;;;;;;;;5050345;28;20672;-75
2023/02/14 05:28:18;;;;;;;50.83;30.23;;;;;;;;;;5050490;28;20215;-76
2023/02/14 05:30:46;;;;;;;51.77;29.90;;;;;;;;;;5049804;28;20302;-75
2023/02/14 05:33:13;;;;;;;52.37;29.57;;;;;;;;;;5030703;28;20255;-76
2023/02/14 05:35:40;;;;;;;47.20;28.60;;;;;;;;;;5030569;28;20631;-76
2023/02/14 05:38:09;;;;;;;50.80;29.80;;;;;;;;;;5034123;28;20279;-76
2023/02/14 05:40:36;;;;;;;50.43;28.43;;;;;;;;;;5033925;28;20266;-75
2023/02/14 05:43:03;;;;;;;45.77;27.93;;;;;;;;;;5033984;28;20201;-75
2023/02/14 05:45:30;;;;;;;49.67;29.23;;;;;;;;;;5034549;28;20295;-76
2023/02/14 05:47:58;;;;;;;49.03;28.53;;;;;;;;;;5033938;28;20299;-75
2023/02/14 05:50:25;;;;;;;51.37;29.37;;;;;;;;;;5033872;28;20312;-75
2023/02/14 05:52:52;;;;;;;47.77;28.53;;;;;;;;;;5033783;28;20279;-75
2023/02/14 05:55:20;;;;;;;52.90;29.30;;;;;;;;;;5033895;28;20287;-74
2023/02/14 05:57:48;;;;;;;46.37;29.03;;;;;;;;;;5034234;28;20664;-75
2023/02/14 06:00:15;;;;;;;51.47;28.73;;;;;;;;;;5034046;28;20283;-75
2023/02/14 06:02:43;;;;;;;49.70;29.30;;;;;;;;;;5033779;28;20227;-75
2023/02/14 06:05:10;;;;;;;46.10;28.67;;;;;;;;;;5033702;28;20298;-75
2023/02/14 06:07:37;;;;;;;48.00;29.00;;;;;;;;;;5033349;28;20212;-74
2023/02/14 06:10:04;;;;;;;51.50;29.73;;;;;;;;;;5033637;28;20673;-75
2023/02/14 06:12:33;;;;;;;53.33;29.70;;;;;;;;;;5046372;28;20203;-75
2023/02/14 06:15:01;;;;;;;50.40;29.60;;;;;;;;;;5053616;28;20228;-75
2023/02/14 06:17:28;;;;;;;50.20;30.00;;;;;;;;;;5053195;28;20686;-74
2023/02/14 06:19:55;;;;;;;53.13;30.30;;;;;;;;;;5053570;28;20719;-75
2023/02/14 06:22:23;;;;;;;54.33;30.30;;;;;;;;;;5052432;28;20220;-75
2023/02/14 06:24:50;;;;;;;50.27;29.20;;;;;;;;;;5033578;28;20230;-74
2023/02/14 06:27:17;;;;;;;53.40;30.47;;;;;;;;;;5033502;28;20284;-74
2023/02/14 06:29:46;;;;;;;50.43;31.07;;;;;;;;;;5033101;28;20554;-74
2023/02/14 06:32:13;;;;;;;52.93;30.87;;;;;;;;;;5033316;28;20306;-74
2023/02/14 06:34:40;;;;;;;53.57;29.80;;;;;;;;;;5033170;28;20327;-75
2023/02/14 06:37:08;;;;;;;50.90;30.13;;;;;;;;;;5032833;28;20294;-75
2023/02/14 06:39:35;;;;;;;47.83;28.40;;;;;;;;;;5033331;28;20262;-75
2023/02/14 06:42:02;;;;;;;52.77;30.83;;;;;;;;;;5032926;28;20230;-75
2023/02/14 06:44:29;;;;;;;49.43;28.47;;;;;;;;;;5032701;28;20287;-75
2023/02/14 06:46:58;;;;;;;47.70;29.47;;;;;;;;;;5032883;28;20227;-74
2023/02/14 06:49:25;;;;;;;50.63;29.70;;;;;;;;;;5032471;28;20231;-74
2023/02/14 06:51:52;;;;;;;55.03;29.83;;;;;;;;;;5032673;28;20299;-75
2023/02/14 06:54:19;;;;;;;53.23;29.77;;;;;;;;;;5032756;28;20322;-75
2023/02/14 06:56:47;;;;;;;51.20;30.23;;;;;;;;;;5032826;28;20204;-75
2023/02/14 06:59:14;;;;;;;58.97;31.90;;;;;;;;;;5032823;28;20295;-76
2023/02/14 07:01:41;;;;;;;56.37;30.77;;;;;;;;;;5032512;28;20236;-75
2023/02/14 07:04:09;;;;;;;56.10;30.97;;;;;;;;;;5032491;28;20715;-75
2023/02/14 07:06:37;;;;;;;57.37;32.67;;;;;;;;;;5032258;28;20301;-74
2023/02/14 07:09:04;;;;;;;58.53;30.23;;;;;;;;;;5033100;28;20346;-75
2023/02/14 07:11:31;;;;;;;54.97;30.43;;;;;;;;;;5037699;28;20257;-74
2023/02/14 07:13:59;;;;;;;52.83;30.53;;;;;;;;;;5052063;28;20702;-75
2023/02/14 07:16:26;;;;;;;60.40;31.20;;;;;;;;;;5052481;28;20286;-74
2023/02/14 07:18:53;;;;;;;56.53;33.00;;;;;;;;;;5052540;28;20394;-74
2023/02/14 07:21:21;;;;;;;60.00;32.57;;;;;;;;;;5052007;28;20357;-74
2023/02/14 07:23:49;;;;;;;62.30;33.37;;;;;;;;;;5052452;28;20625;-74
2023/02/14 07:26:17;;;;;;;69.00;32.97;;;;;;;;;;5052275;28;20762;-73
2023/02/14 07:28:44;;;;;;;65.43;33.70;;;;;;;;;;5052305;28;20310;-76
2023/02/14 07:31:11;;;;;;;60.67;33.37;;;;;;;;;;5051873;28;20196;-76
2023/02/14 07:33:39;;;;;;;63.93;34.00;;;;;;;;;;5051752;28;20283;-76
2023/02/14 07:36:06;;;;;;;57.33;32.40;;;;;;;;;;5052046;28;20200;-76
2023/02/14 07:38:35;;;;;;;60.57;33.17;;;;;;;;;;5052428;28;20293;-76
2023/02/14 07:41:03;;;;;;;58.37;33.87;;;;;;;;;;5051626;28;20291;-75
2023/02/14 07:43:32;;;;;;;59.43;33.47;;;;;;;;;;5052098;28;20300;-74
2023/02/14 07:46:00;;;;;;;57.70;33.27;;;;;;;;;;5051754;28;20200;-73
2023/02/14 07:48:27;;;;;;;56.47;33.30;;;;;;;;;;5051240;28;20202;-75
2023/02/14 07:50:56;;;;;;;54.23;31.90;;;;;;;;;;5051784;28;20742;-74
2023/02/14 07:53:23;;;;;;;51.50;30.80;;;;;;;;;;5051025;28;20195;-74
2023/02/14 07:55:52;;;;;;;48.10;28.90;;;;;;;;;;5051568;28;20281;-74
2023/02/14 07:58:19;;;;;;;48.03;28.70;;;;;;;;;;5051847;28;20211;-75
2023/02/14 08:00:46;;;;;;;46.43;27.33;;;;;;;;;;5050947;28;20206;-73
2023/02/14 08:03:14;;;;;;;38.77;26.20;;;;;;;;;;5051099;28;20297;-74
2023/02/14 08:05:41;;;;;;;36.00;24.80;;;;;;;;;;5051690;28;20668;-75
2023/02/14 08:08:08;;;;;;;37.47;25.63;;;;;;;;;;5051596;28;20230;-74
2023/02/14 08:10:35;;;;;;;37.23;25.00;;;;;;;;;;5050910;28;20295;-74
2023/02/14 08:13:04;;;;;;;38.90;25.30;;;;;;;;;;5050834;28;20782;-75
2023/02/14 08:18:18;;;;;;;49.93;40.80;;;;;;;;;;5051060;28;20206;-74
2023/02/14 08:20:45;;;;;;;59.53;47.50;;;;;;;;;;5051197;28;20199;-75
2023/02/14 08:23:12;;;;;;;53.70;42.50;;;;;;;;;;5050947;28;20283;-74
2023/02/14 08:25:39;;;;;;;49.80;38.67;;;;;;;;;;5051477;28;20207;-75
2023/02/14 08:28:08;;;;;;;48.40;40.07;;;;;;;;;;5051671;28;20274;-74
2023/02/14 08:30:37;;;;;;;47.13;39.03;;;;;;;;;;5051322;28;20212;-75
2023/02/14 08:33:04;;;;;;;41.87;35.53;;;;;;;;;;5051125;28;20195;-73
2023/02/14 08:35:31;;;;;;;42.90;34.30;;;;;;;;;;5051146;28;20326;-75
2023/02/14 08:37:58;;;;;;;41.70;31.73;;;;;;;;;;5051157;28;20286;-74
2023/02/14 08:40:26;;;;;;;35.77;28.70;;;;;;;;;;5051212;28;20291;-74
2023/02/14 08:42:53;;;;;;;33.97;28.20;;;;;;;;;;5051624;28;20294;-75
2023/02/14 08:45:21;;;;;;;33.03;27.48;;;;;;;;;;5051113;28;20286;-76
2023/02/14 08:47:49;;;;;;;38.80;30.40;;;;;;;;;;5050920;28;20195;-74
2023/02/14 08:50:17;;;;;;;37.63;32.40;;;;;;;;;;5051236;28;20278;-74
2023/02/14 08:52:44;;;;;;;37.50;31.88;;;;;;;;;;5051081;28;20294;-74
2023/02/14 08:55:12;;;;;;;36.00;29.92;;;;;;;;;;5051098;28;20318;-74
2023/02/14 08:57:39;;;;;;;33.35;26.80;;;;;;;;;;5050939;28;20661;-75
2023/02/14 09:00:07;;;;;;;33.55;28.13;;;;;;;;;;5050781;28;20235;-75
2023/02/14 09:02:35;;;;;;;34.28;27.00;;;;;;;;;;5050642;28;20239;-75
2023/02/14 09:05:03;;;;;;;36.47;27.42;;;;;;;;;;5051045;28;20302;-74
2023/02/14 09:07:30;;;;;;;32.72;28.08;;;;;;;;;;5050937;28;20239;-75
2023/02/14 09:09:57;;;;;;;34.00;28.45;;;;;;;;;;5050824;28;20723;-75
2023/02/14 09:12:24;;;;;;;32.85;27.63;;;;;;;;;;5051341;28;20272;-76
2023/02/14 09:14:51;;;;;;;34.28;27.48;;;;;;;;;;5054267;28;20291;-75
2023/02/14 09:17:18;;;;;;;31.02;24.92;;;;;;;;;;5053604;28;20253;-74
2023/02/14 09:19:47;;;;;;;27.92;24.10;;;;;;;;;;5054372;28;20234;-75
2023/02/14 09:22:14;;;;;;;27.48;22.33;;;;;;;;;;5054704;28;20278;-75
2023/02/14 09:24:41;;;;;;;27.13;22.45;;;;;;;;;;5054291;28;20216;-75
2023/02/14 09:27:09;;;;;;;28.27;23.65;;;;;;;;;;5054646;28;20227;-75
2023/02/14 09:29:36;;;;;;;29.70;23.58;;;;;;;;;;5054356;28;20200;-75
2023/02/14 09:32:04;;;;;;;29.73;24.33;;;;;;;;;;5054443;28;20287;-74
2023/02/14 09:34:31;;;;;;;29.73;23.08;;;;;;;;;;5054578;28;20223;-74
2023/02/14 09:37:00;;;;;;;29.27;22.60;;;;;;;;;;5054571;28;20290;-74
2023/02/14 09:39:27;;;;;;;26.45;21.25;;;;;;;;;;5054145;28;20688;-74
2023/02/14 09:41:59;;;;;;;27.80;21.83;;;;;;;;;;5053880;28;20303;-73
2023/02/14 09:44:31;;;;;;;29.00;21.05;;;;;;;;;;5053726;28;20290;-74
2023/02/14 09:47:01;;;;;;;27.83;21.55;;;;;;;;;;5054564;28;20239;-74
2023/02/14 09:49:31;;;;;;;27.42;21.42;;;;;;;;;;5054323;28;20219;-74
2023/02/14 09:52:00;;;;;;;26.75;21.88;;;;;;;;;;5053918;28;20192;-73
2023/02/14 09:54:29;;;;;;;25.83;20.70;;;;;;;;;;5053759;28;20306;-77
2023/02/14 09:57:00;;;;;;;27.73;20.85;;;;;;;;;;5054029;28;20290;-75
2023/02/14 09:59:30;;;;;;;24.63;19.83;;;;;;;;;;5054028;28;20199;-76
2023/02/14 10:01:59;;;;;;;24.45;19.83;;;;;;;;;;5053707;28;20261;-76
2023/02/14 10:04:32;;;;;;;30.92;20.52;;;;;;;;;;5054040;28;20313;-76
2023/02/14 10:07:08;;;;;;;27.92;19.73;;;;;;;;;;5053886;28;20287;-77
2023/02/14 10:09:47;;;;;;;26.90;19.27;;;;;;;;;;5050557;28;20207;-75
2023/02/14 10:12:17;;;;;;;28.67;19.60;;;;;;;;;;5054263;28;20325;-76
2023/02/14 10:14:44;;;;;;;26.20;18.27;;;;;;;;;;5052540;28;20788;-76
2023/02/14 10:17:15;;;;;;;24.52;19.05;;;;;;;;;;5046725;28;20227;-76
2023/02/14 10:19:44;;;;;;;19.90;17.05;;;;;;;;;;5045108;28;20282;-76
2023/02/14 10:22:13;;;;;;;21.67;17.05;;;;;;;;;;5050040;28;20235;-77
2023/02/14 10:24:42;;;;;;;20.10;15.38;;;;;;;;;;5044006;28;20297;-77
2023/02/14 10:27:13;;;;;;;20.60;14.85;;;;;;;;;;5052387;28;20638;-76
2023/02/14 10:29:41;;;;;;;18.80;14.27;;;;;;;;;;5052917;28;20686;-76
2023/02/14 10:32:12;;;;;;;16.58;13.45;;;;;;;;;;5049372;28;20218;-76
2023/02/14 10:34:42;;;;;;;18.63;14.15;;;;;;;;;;5045550;28;20314;-76
2023/02/14 10:37:15;;;;;;;18.52;13.93;;;;;;;;;;5043739;28;20228;-77
2023/02/14 10:39:49;;;;;;;18.60;14.05;;;;;;;;;;5044080;28;20656;-76
2023/02/14 10:42:22;;;;;;;21.05;14.68;;;;;;;;;;5043622;28;20707;-76
2023/02/14 10:44:55;;;;;;;19.33;14.68;;;;;;;;;;5043804;28;20292;-76
2023/02/14 10:47:29;;;;;;;19.80;14.70;;;;;;;;;;5043620;28;20638;-76
2023/02/14 10:50:02;;;;;;;18.60;14.55;;;;;;;;;;5043659;28;20211;-76
2023/02/14 10:52:33;;;;;;;21.38;16.15;;;;;;;;;;5043177;28;20242;-76
2023/02/14 10:55:02;;;;;;;20.20;15.05;;;;;;;;;;5043402;28;20219;-76
2023/02/14 10:57:33;;;;;;;21.40;15.77;;;;;;;;;;5042884;28;20223;-76
2023/02/14 11:00:01;;;;;;;20.77;15.50;;;;;;;;;;5043098;28;20672;-76
2023/02/14 11:02:32;;;;;;;22.50;17.10;;;;;;;;;;5043347;28;20287;-77
2023/02/14 11:05:00;;;;;;;20.50;15.57;;;;;;;;;;5043811;28;20199;-76
2023/02/14 11:07:28;;;;;;;22.98;17.08;;;;;;;;;;5037693;28;20243;-76
2023/02/14 11:09:56;;;;;;;22.75;15.98;;;;;;;;;;5032655;28;20295;-76
2023/02/14 11:12:36;;;;;;;21.52;15.35;;;;;;;;;;5043879;28;20207;-76
2023/02/14 11:15:11;;;;;;;19.60;16.27;;;;;;;;;;5049573;28;20257;-76
2023/02/14 11:17:38;;;;;;;21.63;16.70;;;;;;;;;;5052501;28;20230;-76
2023/02/14 11:20:22;;;;;;;22.15;16.35;;;;;;;;;;5052335;28;20723;-76
2023/02/14 11:22:49;;;;;;;23.17;17.25;;;;;;;;;;5052493;28;20203;-75
2023/02/14 11:25:20;;;;;;;22.38;16.17;;;;;;;;;;5052386;28;20287;-76
2023/02/14 11:27:50;;;;;;;23.70;17.35;;;;;;;;;;5052423;28;20192;-76
2023/02/14 11:30:22;;;;;;;23.38;17.25;;;;;;;;;;5052025;28;20290;-76
2023/02/14 11:32:54;;;;;;;20.75;17.20;;;;;;;;;;5052113;28;20290;-75
2023/02/14 11:35:25;;;;;;;21.98;17.48;;;;;;;;;;5050730;28;20772;-74
2023/02/14 11:37:53;;;;;;;21.95;16.98;;;;;;;;;;5052480;28;20199;-76
2023/02/14 11:40:28;;;;;;;22.95;17.25;;;;;;;;;;5051680;28;20277;-76
2023/02/14 11:42:58;;;;;;;21.48;16.75;;;;;;;;;;5051609;28;20226;-75
2023/02/14 11:45:30;;;;;;;20.73;17.15;;;;;;;;;;5052220;28;20219;-75
2023/02/14 11:48:15;;;;;;;21.77;16.77;;;;;;;;;;5051770;28;20287;-75
2023/02/14 11:50:43;;;;;;;21.45;15.65;;;;;;;;;;5036442;28;20210;-75
2023/02/14 11:53:12;;;;;;;19.77;15.95;;;;;;;;;;5051075;28;20676;-75
2023/02/14 11:55:39;;;;;;;20.27;16.08;;;;;;;;;;5050553;28;20227;-76
2023/02/14 11:58:08;;;;;;;22.33;16.90;;;;;;;;;;5039517;28;20283;-75
2023/02/14 12:00:36;;;;;;;23.70;16.60;;;;;;;;;;5048526;28;20567;-76
2023/02/14 12:03:05;;;;;;;20.45;16.55;;;;;;;;;;5050228;28;20200;-76
2023/02/14 12:05:35;;;;;;;22.20;17.05;;;;;;;;;;5050279;28;20298;-75
2023/02/14 12:08:03;;;;;;;23.15;17.90;;;;;;;;;;5051207;28;20952;-75
2023/02/14 12:10:31;;;;;;;20.83;17.67;;;;;;;;;;5048797;28;20283;-75
2023/02/14 12:13:02;;;;;;;22.30;17.55;;;;;;;;;;5049296;28;20311;-75
2023/02/14 12:15:36;;;;;;;23.40;16.63;;;;;;;;;;5047720;28;20228;-75
2023/02/14 12:18:21;;;;;;;22.30;16.95;;;;;;;;;;5046922;28;20207;-76
2023/02/14 12:20:53;;;;;;;23.25;17.13;;;;;;;;;;5034279;28;20816;-74
2023/02/14 12:23:24;;;;;;;21.30;16.10;;;;;;;;;;5036657;28;20665;-75
2023/02/14 12:25:55;;;;;;;19.05;15.98;;;;;;;;;;5050761;28;20299;-75
2023/02/14 12:28:25;;;;;;;22.80;15.65;;;;;;;;;;5051061;28;20294;-75
2023/02/14 12:30:53;;;;;;;18.73;15.32;;;;;;;;;;5051080;28;20223;-76
2023/02/14 12:33:22;;;;;;;18.58;15.15;;;;;;;;;;5051132;28;20246;-74
2023/02/14 12:35:54;;;;;;;18.63;15.07;;;;;;;;;;5051191;28;20222;-76
2023/02/14 12:38:27;;;;;;;18.00;14.75;;;;;;;;;;5050630;28;20199;-76
2023/02/14 12:41:00;;;;;;;20.52;15.57;;;;;;;;;;5051434;28;20234;-75
2023/02/14 12:43:35;;;;;;;22.13;15.20;;;;;;;;;;5051081;28;20290;-75
2023/02/14 12:46:14;;;;;;;18.90;14.63;;;;;;;;;;5053209;28;20742;-75
2023/02/14 12:48:47;;;;;;;19.75;15.85;;;;;;;;;;5055063;28;20737;-75
2023/02/14 12:51:16;;;;;;;18.90;15.40;;;;;;;;;;5055108;28;20282;-75
2023/02/14 12:53:50;;;;;;;18.83;15.25;;;;;;;;;;5054673;28;20199;-76
2023/02/14 12:56:22;;;;;;;19.38;15.10;;;;;;;;;;5055343;28;20674;-74
2023/02/14 12:58:55;;;;;;;18.92;14.57;;;;;;;;;;5053870;28;20318;-74
2023/02/14 13:01:36;;;;;;;17.65;14.55;;;;;;;;;;5054413;28;20204;-76
2023/02/14 13:04:16;;;;;;;18.60;14.68;;;;;;;;;;5047680;28;20307;-75
2023/02/14 13:06:48;;;;;;;19.48;14.77;;;;;;;;;;5052915;28;20219;-75
2023/02/14 13:09:24;;;;;;;17.63;13.52;;;;;;;;;;5039211;28;20292;-76
2023/02/14 13:11:55;;;;;;;16.35;12.98;;;;;;;;;;5049442;28;20283;-74
2023/02/14 13:14:33;;;;;;;14.90;12.15;;;;;;;;;;5046656;28;20243;-74
2023/02/14 13:17:05;;;;;;;15.48;12.10;;;;;;;;;;5050691;28;20260;-74
2023/02/14 13:19:36;;;;;;;17.13;11.52;;;;;;;;;;5047749;28;20196;-75
2023/02/14 13:22:05;;;;;;;15.23;11.52;;;;;;;;;;5047458;28;20231;-75
2023/02/14 13:24:36;;;;;;;15.70;12.23;;;;;;;;;;5044181;28;20247;-76
2023/02/14 13:27:06;;;;;;;15.02;12.80;;;;;;;;;;5045302;28;20481;-75
2023/02/14 13:29:35;;;;;;;17.33;12.38;;;;;;;;;;5052209;28;20199;-77
2023/02/14 13:32:05;;;;;;;17.92;13.38;;;;;;;;;;5043277;28;20206;-75
2023/02/14 13:34:34;;;;;;;15.75;12.27;;;;;;;;;;5045461;28;20197;-76
2023/02/14 13:37:03;;;;;;;17.35;13.23;;;;;;;;;;5041894;28;20255;-76
2023/02/14 13:39:32;;;;;;;16.48;12.35;;;;;;;;;;5046279;28;20291;-76
2023/02/14 13:41:59;;;;;;;15.40;12.70;;;;;;;;;;5043239;28;20716;-76
2023/02/14 13:44:42;;;;;;;15.77;12.38;;;;;;;;;;5045148;28;20270;-75
2023/02/14 13:47:16;;;;;;;15.05;12.20;;;;;;;;;;5044024;28;20232;-75
2023/02/14 13:49:47;;;;;;;14.82;12.75;;;;;;;;;;5042641;28;20279;-76
2023/02/14 13:52:14;;;;;;;16.83;13.45;;;;;;;;;;5048374;28;20279;-75
2023/02/14 13:54:44;;;;;;;17.70;12.85;;;;;;;;;;5050527;28;20295;-75
2023/02/14 13:57:26;;;;;;;15.00;12.00;;;;;;;;;;5050340;28;20298;-76
2023/02/14 14:00:09;;;;;;;18.73;13.05;;;;;;;;;;5047563;28;20628;-75
2023/02/14 14:02:44;;;;;;;15.18;12.05;;;;;;;;;;5026313;28;20223;-75
2023/02/14 14:05:31;;;;;;;15.63;12.20;;;;;;;;;;5047958;28;20286;-75
2023/02/14 14:08:13;;;;;;;15.48;11.45;;;;;;;;;;5048820;28;20606;-75
2023/02/14 14:10:44;;;;;;;16.50;11.85;;;;;;;;;;5047355;28;20202;-75
2023/02/14 14:13:31;;;;;;;15.30;11.27;;;;;;;;;;5046218;28;20235;-75
2023/02/14 14:16:16;;;;;;;15.10;11.52;;;;;;;;;;5046842;28;20307;-76
2023/02/14 14:18:45;;;;;;;13.60;11.20;;;;;;;;;;5043605;28;20302;-75
2023/02/14 14:21:16;;;;;;;19.38;11.77;;;;;;;;;;5042399;28;20283;-75
2023/02/14 14:23:43;;;;;;;17.38;12.45;;;;;;;;;;5042958;28;20196;-75
2023/02/14 14:26:31;;;;;;;16.80;13.27;;;;;;;;;;5045776;28;20242;-75
2023/02/14 14:28:59;;;;;;;15.93;12.35;;;;;;;;;;5047628;28;20287;-76
2023/02/14 14:31:28;;;;;;;18.27;13.50;;;;;;;;;;5044480;28;20709;-74
2023/02/14 14:34:00;;;;;;;15.50;12.43;;;;;;;;;;5047670;28;20235;-75
2023/02/14 14:36:28;;;;;;;17.05;12.75;;;;;;;;;;5046316;28;20936;-75
2023/02/14 14:38:55;;;;;;;15.57;12.63;;;;;;;;;;5046565;28;20291;-76
2023/02/14 14:41:27;;;;;;;15.45;11.77;;;;;;;;;;5047484;28;20224;-75
2023/02/14 14:43:55;;;;;;;15.48;11.65;;;;;;;;;;5047081;28;20688;-75
2023/02/14 14:46:23;;;;;;;17.73;12.15;;;;;;;;;;5043248;28;20199;-75
2023/02/14 14:48:53;;;;;;;14.63;11.00;;;;;;;;;;5048507;28;20192;-75
2023/02/14 14:51:25;;;;;;;14.73;10.75;;;;;;;;;;5046143;28;20206;-75
2023/02/14 14:53:53;;;;;;;17.33;11.80;;;;;;;;;;5046477;28;20196;-75